Milan, MI

4:53 AM EDT on October 02, 2014 (GMT -0400)
Covington Drive | Change Station
CLOSE
Current Station
Personal Weather Station
Location: Saline, MI
Elevation: 810 ft
Nearby Weather Stations
Active Advisory: Special Statement

Elev 810 ft 42.15 °N, 83.74 °W | Updated 51 seconds ago

Fog
Fog
54.0 °F
Feels Like 54.0 °F
N
0.0
Wind Variable Wind from SE
Gusts 0.0 mph

Today
High -- | Low -- °F
--% Chance of Precip.
Yesterday
High -- | Low -- °F
Precip. -- in
7:32 AM 7:14 PM
First Quarter, 56% visible
Pressure 30.02 in
Visibility 0.2 miles
Clouds
Dew Point 53 °F
Humidity 97%
Rainfall 0.00 in
Snow Depth Not available.
UV Not available.
Pollen 2.40 out of 12
PM2.5 Moderate
Flu Activity Not available.
METAR KARB 020753Z AUTO 00000KT 1/4SM FG VV001 14/12 A3003 RMK AO2 SLP166 T01390122

More Conditions Fewer Conditions

Pressure 30.02 in
Visibility 0.2 miles
Clouds
Dew Point 53 °F
Humidity 97%
Rainfall 0.00 in
Snow Depth Not available.
UV Not available.
Pollen 2.40 out of 12
PM2.5 Moderate
Flu Activity Not available.
METAR KARB 020753Z AUTO 00000KT 1/4SM FG VV001 14/12 A3003 RMK AO2 SLP166 T01390122

More Conditions Fewer Conditions

10-Day Weather Forecast

Almanac

Astronomy

Oct. 02, 2014 Rise Set
Actual Time 7:32 AM EDT 7:14 PM EDT
Civil Twilight 7:04 AM EDT 7:42 PM EDT
Nautical Twilight 6:32 AM EDT 8:14 PM EDT
Astronomical Twilight 5:59 AM EDT 8:47 PM EDT
Moon 3:25 PM EDT 12:42 AM EDT
Length of Visible Light 12h 37m
Length of Day
11h 41m
Tomorrow will be 2m 49s shorter.
First Quarter, 56% of the Moon is Illuminated
Today
First Quarter
Oct 8
Full
Oct 15
Last Quarter
Oct 23
New
Oct 30
First Quarter

Today's Extremes

State Highs State Lows

Community

WunderPhotos

Upload Photos

1,758,196 photos uploaded!

WunderBlogs® & News

By Dr. Jeff Masters
Director of Meteorology, Weather Underground
By Kari Strenfel
Meteorologist, Weather Underground
By Christopher C. Burt
Weather Historian, Weather Underground
October 2, 2014
October 2, 2014
October 2, 2014

Nearby

Air Quality

  Air Quality AQ Index Pollutant
Yesterday Good
PM2.5
Current Moderate
PM2.5
Thursday Moderate
PM2.5
Thursday Good
OZONE
Friday Good
OZONE
Friday Good
PM2.5
Saturday Good
OZONE
Saturday Good
PM2.5

Snow Depth

Station Depth Elevation
No new snow has been reported.

Earthquake Activity

City Distance Mag. Time & Date
No recent earthquake activity has been reported nearby.
Minimum magnitude displayed is 2.5.

Coastal Water Temperatures

Place Temperature
Marblehead, OH 64.9 °F

Nearby Weather Stations